Terminal Aerodrome Forecast
Issued by NWS

Home | Current Version | Previous Version | Text Only | Print | Product List | Glossary On
Versions: 1 2 3 4 5 6 7 8 9 10 11 12
000
FTUS42 KTAE 200500
TAFECP
TAF
KECP 200539Z 2006/2106 01007KT P6SM -RA BKN035 OVC070
      TEMPO 2007/2010 BKN015
     FM201100 08005KT P6SM BKN040 BKN070
     FM210200 06007KT P6SM OVC025=

USA.gov is the U.S. government's official web portal to all federal, state and local government web resources and services.